sensor_id;sensor_type;location;lat;lon;timestamp;pressure;altitude;pressure_sealevel;temperature;humidity
64354;BME280;50681;53.334;-6.536;2023-03-20T00:02:01;100568.09;;;13.61;100.00
64354;BME280;50681;53.334;-6.536;2023-03-20T00:07:05;100574.47;;;13.56;100.00
64354;BME280;50681;53.334;-6.536;2023-03-20T00:09:34;100568.59;;;13.63;100.00
64354;BME280;50681;53.334;-6.536;2023-03-20T00:12:05;100577.16;;;13.79;100.00
64354;BME280;50681;53.334;-6.536;2023-03-20T00:14:34;100569.91;;;13.65;100.00
64354;BME280;50681;53.334;-6.536;2023-03-20T00:16:59;100564.88;;;13.59;100.00
64354;BME280;50681;53.334;-6.536;2023-03-20T00:19:25;100579.56;;;13.58;100.00
64354;BME280;50681;53.334;-6.536;2023-03-20T00:21:52;100575.06;;;13.53;100.00
64354;BME280;50681;53.334;-6.536;2023-03-20T00:24:18;100571.63;;;13.61;100.00
64354;BME280;50681;53.334;-6.536;2023-03-20T00:26:44;100581.25;;;13.45;100.00
64354;BME280;50681;53.334;-6.536;2023-03-20T00:29:19;100575.44;;;13.60;100.00
64354;BME280;50681;53.334;-6.536;2023-03-20T00:31:45;100575.75;;;13.59;100.00
64354;BME280;50681;53.334;-6.536;2023-03-20T00:34:15;100576.84;;;13.58;100.00
64354;BME280;50681;53.334;-6.536;2023-03-20T00:39:12;100570.38;;;13.67;100.00
64354;BME280;50681;53.334;-6.536;2023-03-20T00:46:55;100578.16;;;13.83;100.00
64354;BME280;50681;53.334;-6.536;2023-03-20T00:49:23;100581.38;;;13.62;100.00
64354;BME280;50681;53.334;-6.536;2023-03-20T00:51:50;100572.34;;;13.76;100.00
64354;BME280;50681;53.334;-6.536;2023-03-20T00:54:16;100570.78;;;13.84;100.00
64354;BME280;50681;53.334;-6.536;2023-03-20T00:56:43;100562.97;;;13.82;100.00
64354;BME280;50681;53.334;-6.536;2023-03-20T00:59:13;100562.28;;;13.76;100.00
64354;BME280;50681;53.334;-6.536;2023-03-20T01:01:41;100558.78;;;13.76;100.00
64354;BME280;50681;53.334;-6.536;2023-03-20T01:04:14;100562.09;;;13.95;100.00
64354;BME280;50681;53.334;-6.536;2023-03-20T01:06:40;100565.34;;;13.84;100.00
64354;BME280;50681;53.334;-6.536;2023-03-20T01:09:06;100555.81;;;13.86;100.00
64354;BME280;50681;53.334;-6.536;2023-03-20T01:11:31;100552.81;;;13.96;100.00
64354;BME280;50681;53.334;-6.536;2023-03-20T01:14:03;100554.25;;;13.94;100.00
64354;BME280;50681;53.334;-6.536;2023-03-20T01:16:28;100558.41;;;14.00;100.00
64354;BME280;50681;53.334;-6.536;2023-03-20T01:18:56;100558.03;;;13.84;100.00
64354;BME280;50681;53.334;-6.536;2023-03-20T01:21:21;100565.28;;;13.98;100.00
64354;BME280;50681;53.334;-6.536;2023-03-20T01:23:47;100552.59;;;13.84;100.00
64354;BME280;50681;53.334;-6.536;2023-03-20T01:28:41;100547.75;;;14.04;100.00
64354;BME280;50681;53.334;-6.536;2023-03-20T01:31:07;100547.28;;;14.10;100.00
64354;BME280;50681;53.334;-6.536;2023-03-20T01:33:36;100545.94;;;13.90;100.00
64354;BME280;50681;53.334;-6.536;2023-03-20T01:36:05;100548.38;;;14.01;100.00
64354;BME280;50681;53.334;-6.536;2023-03-20T01:38:31;100552.41;;;14.12;100.00
64354;BME280;50681;53.334;-6.536;2023-03-20T01:41:15;100541.72;;;14.16;100.00
64354;BME280;50681;53.334;-6.536;2023-03-20T01:43:42;100549.38;;;14.14;100.00
64354;BME280;50681;53.334;-6.536;2023-03-20T01:46:18;100558.63;;;14.04;100.00
64354;BME280;50681;53.334;-6.536;2023-03-20T01:51:27;100539.81;;;14.16;100.00
64354;BME280;50681;53.334;-6.536;2023-03-20T01:54:09;100541.91;;;14.19;100.00
64354;BME280;50681;53.334;-6.536;2023-03-20T01:56:42;100544.63;;;14.19;100.00
64354;BME280;50681;53.334;-6.536;2023-03-20T01:59:09;100545.91;;;14.22;100.00
64354;BME280;50681;53.334;-6.536;2023-03-20T02:01:38;100542.47;;;14.07;100.00
64354;BME280;50681;53.334;-6.536;2023-03-20T02:04:07;100549.06;;;14.15;100.00
64354;BME280;50681;53.334;-6.536;2023-03-20T02:06:33;100548.59;;;14.13;100.00
64354;BME280;50681;53.334;-6.536;2023-03-20T02:09:00;100549.31;;;13.96;100.00
64354;BME280;50681;53.334;-6.536;2023-03-20T02:11:25;100534.47;;;14.02;100.00
64354;BME280;50681;53.334;-6.536;2023-03-20T02:13:56;100527.00;;;14.08;100.00
64354;BME280;50681;53.334;-6.536;2023-03-20T02:16:31;100526.72;;;14.18;100.00
64354;BME280;50681;53.334;-6.536;2023-03-20T02:18:56;100530.34;;;14.05;100.00
64354;BME280;50681;53.334;-6.536;2023-03-20T02:37:01;100513.31;;;14.22;100.00
64354;BME280;50681;53.334;-6.536;2023-03-20T02:42:10;100515.19;;;14.13;100.00
64354;BME280;50681;53.334;-6.536;2023-03-20T02:47:18;100513.66;;;13.89;100.00
64354;BME280;50681;53.334;-6.536;2023-03-20T02:57:42;100512.75;;;13.93;100.00
64354;BME280;50681;53.334;-6.536;2023-03-20T03:00:23;100504.94;;;14.01;100.00
64354;BME280;50681;53.334;-6.536;2023-03-20T03:02:58;100515.53;;;14.11;100.00
64354;BME280;50681;53.334;-6.536;2023-03-20T03:05:35;100505.44;;;14.11;100.00
64354;BME280;50681;53.334;-6.536;2023-03-20T03:08:02;100490.28;;;14.10;100.00
64354;BME280;50681;53.334;-6.536;2023-03-20T03:10:33;100490.94;;;14.16;100.00
64354;BME280;50681;53.334;-6.536;2023-03-20T03:15:53;100483.81;;;13.57;100.00
64354;BME280;50681;53.334;-6.536;2023-03-20T03:18:20;100484.63;;;13.89;100.00
64354;BME280;50681;53.334;-6.536;2023-03-20T03:20:48;100490.03;;;13.35;100.00
64354;BME280;50681;53.334;-6.536;2023-03-20T03:23:27;100485.06;;;13.28;100.00
64354;BME280;50681;53.334;-6.536;2023-03-20T03:25:53;100481.91;;;13.35;100.00
64354;BME280;50681;53.334;-6.536;2023-03-20T03:31:03;100483.75;;;13.26;100.00
64354;BME280;50681;53.334;-6.536;2023-03-20T03:33:29;100488.13;;;13.35;100.00
64354;BME280;50681;53.334;-6.536;2023-03-20T03:35:59;100487.88;;;13.69;100.00
64354;BME280;50681;53.334;-6.536;2023-03-20T03:41:01;100500.78;;;13.17;100.00
64354;BME280;50681;53.334;-6.536;2023-03-20T03:43:34;100507.63;;;13.15;100.00
64354;BME280;50681;53.334;-6.536;2023-03-20T03:46:06;100503.78;;;13.16;100.00
64354;BME280;50681;53.334;-6.536;2023-03-20T03:48:41;100504.53;;;13.07;100.00
64354;BME280;50681;53.334;-6.536;2023-03-20T03:51:10;100499.53;;;13.01;100.00
64354;BME280;50681;53.334;-6.536;2023-03-20T03:53:39;100496.16;;;13.18;100.00
64354;BME280;50681;53.334;-6.536;2023-03-20T03:56:07;100497.81;;;13.28;100.00
64354;BME280;50681;53.334;-6.536;2023-03-20T03:58:45;100503.88;;;13.25;100.00
64354;BME280;50681;53.334;-6.536;2023-03-20T04:01:12;100495.28;;;13.31;100.00
64354;BME280;50681;53.334;-6.536;2023-03-20T04:03:39;100489.19;;;13.26;100.00
64354;BME280;50681;53.334;-6.536;2023-03-20T04:06:05;100486.03;;;13.32;100.00
64354;BME280;50681;53.334;-6.536;2023-03-20T04:08:34;100489.66;;;13.42;100.00
64354;BME280;50681;53.334;-6.536;2023-03-20T04:10:59;100495.03;;;13.19;100.00
64354;BME280;50681;53.334;-6.536;2023-03-20T04:25:03;100491.63;;;13.36;100.00
64354;BME280;50681;53.334;-6.536;2023-03-20T04:27:29;100497.47;;;13.20;100.00
64354;BME280;50681;53.334;-6.536;2023-03-20T04:29:55;100495.91;;;13.28;100.00
64354;BME280;50681;53.334;-6.536;2023-03-20T04:32:20;100500.34;;;13.24;100.00
64354;BME280;50681;53.334;-6.536;2023-03-20T04:40:07;100512.47;;;13.72;100.00
64354;BME280;50681;53.334;-6.536;2023-03-20T04:58:45;100491.56;;;13.73;100.00
64354;BME280;50681;53.334;-6.536;2023-03-20T05:01:19;100492.41;;;13.82;100.00
64354;BME280;50681;53.334;-6.536;2023-03-20T05:03:55;100488.22;;;13.76;100.00
64354;BME280;50681;53.334;-6.536;2023-03-20T05:06:46;100482.34;;;13.82;100.00
64354;BME280;50681;53.334;-6.536;2023-03-20T05:09:15;100486.72;;;13.92;100.00
64354;BME280;50681;53.334;-6.536;2023-03-20T05:12:02;100479.34;;;13.93;100.00
64354;BME280;50681;53.334;-6.536;2023-03-20T05:14:30;100476.13;;;13.82;100.00
64354;BME280;50681;53.334;-6.536;2023-03-20T05:19:54;100483.66;;;13.85;100.00
64354;BME280;50681;53.334;-6.536;2023-03-20T05:27:32;100472.66;;;13.90;100.00
64354;BME280;50681;53.334;-6.536;2023-03-20T05:46:21;100459.94;;;13.68;100.00
64354;BME280;50681;53.334;-6.536;2023-03-20T05:49:26;100460.94;;;13.49;100.00
64354;BME280;50681;53.334;-6.536;2023-03-20T05:52:03;100461.44;;;13.51;100.00
64354;BME280;50681;53.334;-6.536;2023-03-20T05:54:29;100451.22;;;13.48;100.00
64354;BME280;50681;53.334;-6.536;2023-03-20T06:24:49;100428.09;;;13.51;100.00
64354;BME280;50681;53.334;-6.536;2023-03-20T06:27:23;100436.59;;;13.58;100.00
64354;BME280;50681;53.334;-6.536;2023-03-20T06:32:49;100433.84;;;13.90;100.00
64354;BME280;50681;53.334;-6.536;2023-03-20T06:35:21;100435.91;;;13.52;100.00
64354;BME280;50681;53.334;-6.536;2023-03-20T06:37:47;100446.59;;;13.49;100.00
64354;BME280;50681;53.334;-6.536;2023-03-20T06:40:15;100441.34;;;13.52;100.00
64354;BME280;50681;53.334;-6.536;2023-03-20T06:48:45;100457.09;;;13.19;100.00
64354;BME280;50681;53.334;-6.536;2023-03-20T06:58:59;100471.44;;;13.42;100.00
64354;BME280;50681;53.334;-6.536;2023-03-20T07:04:31;100468.31;;;13.49;100.00
64354;BME280;50681;53.334;-6.536;2023-03-20T07:12:30;100467.94;;;13.73;100.00
64354;BME280;50681;53.334;-6.536;2023-03-20T07:15:00;100470.97;;;13.72;100.00
64354;BME280;50681;53.334;-6.536;2023-03-20T07:17:36;100471.75;;;13.72;100.00
64354;BME280;50681;53.334;-6.536;2023-03-20T07:20:13;100471.88;;;13.58;100.00
64354;BME280;50681;53.334;-6.536;2023-03-20T07:22:41;100474.59;;;13.99;100.00
64354;BME280;50681;53.334;-6.536;2023-03-20T07:25:08;100469.31;;;14.02;100.00
64354;BME280;50681;53.334;-6.536;2023-03-20T07:39:04;100476.75;;;13.79;100.00
64354;BME280;50681;53.334;-6.536;2023-03-20T07:41:30;100480.38;;;13.74;100.00
64354;BME280;50681;53.334;-6.536;2023-03-20T07:44:01;100479.59;;;13.74;100.00
64354;BME280;50681;53.334;-6.536;2023-03-20T07:46:35;100482.03;;;13.84;100.00
64354;BME280;50681;53.334;-6.536;2023-03-20T07:49:06;100490.00;;;13.80;100.00
64354;BME280;50681;53.334;-6.536;2023-03-20T07:51:34;100489.09;;;13.94;100.00
64354;BME280;50681;53.334;-6.536;2023-03-20T07:54:02;100498.31;;;14.24;100.00
64354;BME280;50681;53.334;-6.536;2023-03-20T07:56:27;100494.72;;;14.55;100.00
64354;BME280;50681;53.334;-6.536;2023-03-20T07:58:53;100496.03;;;14.76;100.00
64354;BME280;50681;53.334;-6.536;2023-03-20T08:01:21;100493.66;;;14.74;100.00
64354;BME280;50681;53.334;-6.536;2023-03-20T08:03:46;100498.59;;;14.14;100.00
64354;BME280;50681;53.334;-6.536;2023-03-20T08:30:03;100497.50;;;14.91;100.00
64354;BME280;50681;53.334;-6.536;2023-03-20T08:32:31;100495.78;;;14.37;100.00
64354;BME280;50681;53.334;-6.536;2023-03-20T08:35:06;100498.25;;;14.74;100.00
64354;BME280;50681;53.334;-6.536;2023-03-20T08:37:43;100493.78;;;14.78;100.00
64354;BME280;50681;53.334;-6.536;2023-03-20T08:40:11;100500.38;;;14.86;100.00
64354;BME280;50681;53.334;-6.536;2023-03-20T08:42:54;100499.22;;;14.95;100.00
64354;BME280;50681;53.334;-6.536;2023-03-20T08:45:22;100498.91;;;15.14;100.00
64354;BME280;50681;53.334;-6.536;2023-03-20T08:48:08;100498.75;;;15.11;100.00
64354;BME280;50681;53.334;-6.536;2023-03-20T08:50:33;100496.34;;;15.27;100.00
64354;BME280;50681;53.334;-6.536;2023-03-20T08:52:58;100495.53;;;15.35;100.00
64354;BME280;50681;53.334;-6.536;2023-03-20T08:55:23;100491.47;;;15.59;100.00
64354;BME280;50681;53.334;-6.536;2023-03-20T08:57:51;100497.09;;;15.54;100.00
64354;BME280;50681;53.334;-6.536;2023-03-20T09:00:23;100495.94;;;15.72;100.00
64354;BME280;50681;53.334;-6.536;2023-03-20T09:02:59;100493.50;;;15.80;100.00
64354;BME280;50681;53.334;-6.536;2023-03-20T09:11:55;100485.25;;;15.97;100.00
64354;BME280;50681;53.334;-6.536;2023-03-20T09:17:17;100482.78;;;16.65;100.00
64354;BME280;50681;53.334;-6.536;2023-03-20T09:19:47;100491.03;;;16.77;100.00
64354;BME280;50681;53.334;-6.536;2023-03-20T09:22:13;100480.81;;;16.53;100.00
64354;BME280;50681;53.334;-6.536;2023-03-20T09:27:44;100485.25;;;16.57;100.00
64354;BME280;50681;53.334;-6.536;2023-03-20T09:31:04;100468.63;;;16.71;100.00
64354;BME280;50681;53.334;-6.536;2023-03-20T09:33:31;100457.91;;;16.87;100.00
64354;BME280;50681;53.334;-6.536;2023-03-20T09:35:56;100450.88;;;16.86;100.00
64354;BME280;50681;53.334;-6.536;2023-03-20T09:38:24;100461.44;;;16.67;100.00
64354;BME280;50681;53.334;-6.536;2023-03-20T09:40:53;100478.25;;;17.11;100.00
64354;BME280;50681;53.334;-6.536;2023-03-20T09:51:57;100462.69;;;17.45;100.00
64354;BME280;50681;53.334;-6.536;2023-03-20T09:54:39;100467.19;;;17.29;100.00
64354;BME280;50681;53.334;-6.536;2023-03-20T09:57:05;100476.25;;;17.67;100.00
64354;BME280;50681;53.334;-6.536;2023-03-20T09:59:37;100458.22;;;17.28;100.00
64354;BME280;50681;53.334;-6.536;2023-03-20T10:02:22;100455.94;;;16.97;100.00
64354;BME280;50681;53.334;-6.536;2023-03-20T10:04:52;100473.78;;;17.28;100.00
64354;BME280;50681;53.334;-6.536;2023-03-20T10:07:22;100480.06;;;17.07;100.00
64354;BME280;50681;53.334;-6.536;2023-03-20T10:09:49;100482.16;;;17.23;100.00
64354;BME280;50681;53.334;-6.536;2023-03-20T10:18:24;100475.84;;;17.89;100.00
64354;BME280;50681;53.334;-6.536;2023-03-20T10:21:21;100452.16;;;17.81;100.00
64354;BME280;50681;53.334;-6.536;2023-03-20T10:26:23;100463.63;;;17.62;100.00
64354;BME280;50681;53.334;-6.536;2023-03-20T10:29:00;100484.13;;;17.93;100.00
64354;BME280;50681;53.334;-6.536;2023-03-20T10:34:20;100470.47;;;17.93;100.00
64354;BME280;50681;53.334;-6.536;2023-03-20T10:37:03;100481.63;;;17.88;100.00
64354;BME280;50681;53.334;-6.536;2023-03-20T10:42:23;100485.16;;;17.76;100.00
64354;BME280;50681;53.334;-6.536;2023-03-20T10:44:59;100487.03;;;18.09;100.00
64354;BME280;50681;53.334;-6.536;2023-03-20T10:47:37;100447.69;;;17.64;100.00
64354;BME280;50681;53.334;-6.536;2023-03-20T10:50:14;100463.31;;;17.76;100.00
64354;BME280;50681;53.334;-6.536;2023-03-20T10:52:41;100453.84;;;17.73;100.00
64354;BME280;50681;53.334;-6.536;2023-03-20T10:55:37;100448.94;;;17.54;100.00
64354;BME280;50681;53.334;-6.536;2023-03-20T10:58:15;100468.88;;;17.80;100.00
64354;BME280;50681;53.334;-6.536;2023-03-20T11:00:46;100476.19;;;18.00;100.00
64354;BME280;50681;53.334;-6.536;2023-03-20T11:03:22;100486.16;;;17.84;100.00
64354;BME280;50681;53.334;-6.536;2023-03-20T11:08:53;100454.28;;;18.38;100.00
64354;BME280;50681;53.334;-6.536;2023-03-20T11:11:27;100449.06;;;18.32;100.00
64354;BME280;50681;53.334;-6.536;2023-03-20T11:13:55;100460.13;;;18.36;100.00
64354;BME280;50681;53.334;-6.536;2023-03-20T11:16:23;100438.06;;;18.16;100.00
64354;BME280;50681;53.334;-6.536;2023-03-20T11:18:51;100437.66;;;18.43;100.00
64354;BME280;50681;53.334;-6.536;2023-03-20T11:21:27;100458.59;;;18.51;100.00
64354;BME280;50681;53.334;-6.536;2023-03-20T11:23:54;100436.03;;;18.54;100.00
64354;BME280;50681;53.334;-6.536;2023-03-20T11:26:40;100440.72;;;18.54;100.00
64354;BME280;50681;53.334;-6.536;2023-03-20T11:29:09;100452.19;;;18.88;100.00
64354;BME280;50681;53.334;-6.536;2023-03-20T11:33:26;100420.81;;;18.69;100.00
64354;BME280;50681;53.334;-6.536;2023-03-20T11:35:54;100449.44;;;19.00;100.00
64354;BME280;50681;53.334;-6.536;2023-03-20T11:38:20;100426.81;;;18.87;100.00
64354;BME280;50681;53.334;-6.536;2023-03-20T11:40:47;100422.47;;;19.15;100.00
64354;BME280;50681;53.334;-6.536;2023-03-20T11:43:18;100429.56;;;19.48;100.00
64354;BME280;50681;53.334;-6.536;2023-03-20T11:45:46;100426.28;;;19.74;100.00
64354;BME280;50681;53.334;-6.536;2023-03-20T11:48:19;100435.13;;;19.67;100.00
64354;BME280;50681;53.334;-6.536;2023-03-20T11:53:37;100430.53;;;19.88;100.00
64354;BME280;50681;53.334;-6.536;2023-03-20T11:56:32;100419.47;;;20.00;100.00
64354;BME280;50681;53.334;-6.536;2023-03-20T11:59:14;100417.94;;;20.19;100.00
64354;BME280;50681;53.334;-6.536;2023-03-20T12:01:45;100402.50;;;20.30;100.00
64354;BME280;50681;53.334;-6.536;2023-03-20T12:07:00;100395.84;;;20.11;100.00
64354;BME280;50681;53.334;-6.536;2023-03-20T12:09:37;100384.19;;;20.34;100.00
64354;BME280;50681;53.334;-6.536;2023-03-20T12:12:15;100395.13;;;20.15;100.00
64354;BME280;50681;53.334;-6.536;2023-03-20T12:14:59;100403.19;;;20.07;100.00
64354;BME280;50681;53.334;-6.536;2023-03-20T12:27:54;100380.22;;;19.80;100.00
64354;BME280;50681;53.334;-6.536;2023-03-20T12:30:37;100373.25;;;19.98;100.00
64354;BME280;50681;53.334;-6.536;2023-03-20T12:33:29;100374.91;;;19.87;100.00
64354;BME280;50681;53.334;-6.536;2023-03-20T12:35:57;100369.00;;;20.01;100.00
64354;BME280;50681;53.334;-6.536;2023-03-20T12:38:33;100376.13;;;20.41;100.00
64354;BME280;50681;53.334;-6.536;2023-03-20T12:41:10;100389.09;;;20.25;100.00
64354;BME280;50681;53.334;-6.536;2023-03-20T12:43:46;100370.03;;;20.71;100.00
64354;BME280;50681;53.334;-6.536;2023-03-20T12:48:59;100374.09;;;21.24;100.00
64354;BME280;50681;53.334;-6.536;2023-03-20T12:51:39;100385.72;;;21.14;100.00
64354;BME280;50681;53.334;-6.536;2023-03-20T13:00:02;100375.34;;;21.04;100.00
64354;BME280;50681;53.334;-6.536;2023-03-20T13:02:51;100370.59;;;21.00;100.00
64354;BME280;50681;53.334;-6.536;2023-03-20T13:14:16;100354.97;;;20.42;100.00
64354;BME280;50681;53.334;-6.536;2023-03-20T13:16:54;100348.31;;;20.43;100.00
64354;BME280;50681;53.334;-6.536;2023-03-20T13:22:11;100338.44;;;19.83;100.00
64354;BME280;50681;53.334;-6.536;2023-03-20T13:24:49;100345.22;;;20.05;100.00
64354;BME280;50681;53.334;-6.536;2023-03-20T13:30:06;100330.47;;;20.73;100.00
64354;BME280;50681;53.334;-6.536;2023-03-20T13:35:54;100332.75;;;21.13;100.00
64354;BME280;50681;53.334;-6.536;2023-03-20T13:38:29;100308.06;;;20.90;100.00
64354;BME280;50681;53.334;-6.536;2023-03-20T13:41:00;100334.97;;;20.81;100.00
64354;BME280;50681;53.334;-6.536;2023-03-20T13:43:33;100318.94;;;20.83;100.00
64354;BME280;50681;53.334;-6.536;2023-03-20T13:46:02;100316.22;;;20.44;100.00
64354;BME280;50681;53.334;-6.536;2023-03-20T13:48:39;100306.97;;;20.52;100.00
64354;BME280;50681;53.334;-6.536;2023-03-20T13:56:21;100302.72;;;21.24;100.00
64354;BME280;50681;53.334;-6.536;2023-03-20T14:04:33;100282.06;;;21.07;100.00
64354;BME280;50681;53.334;-6.536;2023-03-20T14:07:29;100273.69;;;21.50;100.00
64354;BME280;50681;53.334;-6.536;2023-03-20T14:09:55;100278.22;;;21.39;100.00
64354;BME280;50681;53.334;-6.536;2023-03-20T14:12:24;100279.50;;;21.72;100.00
64354;BME280;50681;53.334;-6.536;2023-03-20T14:14:58;100277.81;;;21.64;100.00
64354;BME280;50681;53.334;-6.536;2023-03-20T14:17:29;100262.34;;;21.25;100.00
64354;BME280;50681;53.334;-6.536;2023-03-20T14:19:57;100254.34;;;21.43;100.00
64354;BME280;50681;53.334;-6.536;2023-03-20T14:22:35;100253.56;;;21.42;100.00
64354;BME280;50681;53.334;-6.536;2023-03-20T14:25:05;100243.78;;;21.45;100.00
64354;BME280;50681;53.334;-6.536;2023-03-20T14:27:53;100237.06;;;21.12;100.00
64354;BME280;50681;53.334;-6.536;2023-03-20T14:39:02;100247.09;;;21.00;100.00
64354;BME280;50681;53.334;-6.536;2023-03-20T14:41:57;100242.69;;;20.96;100.00
64354;BME280;50681;53.334;-6.536;2023-03-20T14:57:44;100238.84;;;21.00;100.00
64354;BME280;50681;53.334;-6.536;2023-03-20T15:02:47;100222.50;;;21.08;100.00
64354;BME280;50681;53.334;-6.536;2023-03-20T15:05:26;100216.94;;;21.04;100.00
64354;BME280;50681;53.334;-6.536;2023-03-20T15:07:56;100227.41;;;21.25;100.00
64354;BME280;50681;53.334;-6.536;2023-03-20T15:10:24;100230.88;;;21.19;100.00
64354;BME280;50681;53.334;-6.536;2023-03-20T15:12:50;100215.97;;;20.93;100.00
64354;BME280;50681;53.334;-6.536;2023-03-20T15:15:26;100226.78;;;20.82;100.00
64354;BME280;50681;53.334;-6.536;2023-03-20T15:17:52;100226.00;;;20.81;100.00
64354;BME280;50681;53.334;-6.536;2023-03-20T15:20:23;100205.13;;;20.53;100.00
64354;BME280;50681;53.334;-6.536;2023-03-20T15:25:21;100193.53;;;20.64;100.00
64354;BME280;50681;53.334;-6.536;2023-03-20T15:27:48;100213.78;;;20.55;100.00
64354;BME280;50681;53.334;-6.536;2023-03-20T15:30:16;100214.97;;;20.78;100.00
64354;BME280;50681;53.334;-6.536;2023-03-20T15:32:43;100192.03;;;20.00;100.00
64354;BME280;50681;53.334;-6.536;2023-03-20T15:35:11;100189.91;;;20.13;100.00
64354;BME280;50681;53.334;-6.536;2023-03-20T15:37:39;100190.28;;;20.11;100.00
64354;BME280;50681;53.334;-6.536;2023-03-20T15:40:12;100192.03;;;20.00;100.00
64354;BME280;50681;53.334;-6.536;2023-03-20T15:42:42;100183.50;;;19.86;100.00
64354;BME280;50681;53.334;-6.536;2023-03-20T15:45:25;100168.75;;;19.90;100.00
64354;BME280;50681;53.334;-6.536;2023-03-20T15:47:58;100182.41;;;20.10;100.00
64354;BME280;50681;53.334;-6.536;2023-03-20T15:50:24;100173.88;;;19.92;100.00
64354;BME280;50681;53.334;-6.536;2023-03-20T15:52:50;100153.00;;;19.87;100.00
64354;BME280;50681;53.334;-6.536;2023-03-20T15:55:20;100175.00;;;20.10;100.00
64354;BME280;50681;53.334;-6.536;2023-03-20T15:57:47;100179.19;;;20.04;100.00
64354;BME280;50681;53.334;-6.536;2023-03-20T16:00:44;100179.34;;;19.92;100.00
64354;BME280;50681;53.334;-6.536;2023-03-20T16:03:15;100152.44;;;19.78;100.00
64354;BME280;50681;53.334;-6.536;2023-03-20T16:05:45;100132.22;;;19.63;100.00
64354;BME280;50681;53.334;-6.536;2023-03-20T16:08:37;100163.25;;;19.71;100.00
64354;BME280;50681;53.334;-6.536;2023-03-20T16:11:15;100177.38;;;19.53;100.00
64354;BME280;50681;53.334;-6.536;2023-03-20T16:13:43;100171.97;;;19.57;100.00
64354;BME280;50681;53.334;-6.536;2023-03-20T16:16:16;100166.06;;;19.35;100.00
64354;BME280;50681;53.334;-6.536;2023-03-20T16:18:47;100145.56;;;19.09;100.00
64354;BME280;50681;53.334;-6.536;2023-03-20T16:21:31;100149.53;;;18.79;100.00
64354;BME280;50681;53.334;-6.536;2023-03-20T16:23:59;100134.53;;;18.89;100.00
64354;BME280;50681;53.334;-6.536;2023-03-20T16:26:26;100153.34;;;19.07;100.00
64354;BME280;50681;53.334;-6.536;2023-03-20T16:28:56;100148.66;;;19.07;100.00
64354;BME280;50681;53.334;-6.536;2023-03-20T16:31:27;100144.41;;;18.94;100.00
64354;BME280;50681;53.334;-6.536;2023-03-20T16:33:58;100133.84;;;18.92;100.00
64354;BME280;50681;53.334;-6.536;2023-03-20T16:36:29;100117.09;;;18.78;100.00
64354;BME280;50681;53.334;-6.536;2023-03-20T16:41:31;100101.13;;;18.80;100.00
64354;BME280;50681;53.334;-6.536;2023-03-20T16:43:58;100112.19;;;19.03;100.00
64354;BME280;50681;53.334;-6.536;2023-03-20T16:46:29;100112.00;;;19.12;100.00
64354;BME280;50681;53.334;-6.536;2023-03-20T16:48:57;100104.53;;;19.09;100.00
64354;BME280;50681;53.334;-6.536;2023-03-20T16:51:28;100087.75;;;18.94;100.00
64354;BME280;50681;53.334;-6.536;2023-03-20T16:53:58;100105.22;;;18.54;100.00
64354;BME280;50681;53.334;-6.536;2023-03-20T16:56:33;100103.91;;;18.48;100.00
64354;BME280;50681;53.334;-6.536;2023-03-20T16:59:16;100098.25;;;18.41;100.00
64354;BME280;50681;53.334;-6.536;2023-03-20T17:01:43;100100.94;;;18.37;100.00
64354;BME280;50681;53.334;-6.536;2023-03-20T17:04:27;100098.44;;;18.48;100.00
64354;BME280;50681;53.334;-6.536;2023-03-20T17:07:04;100094.94;;;18.47;100.00
64354;BME280;50681;53.334;-6.536;2023-03-20T17:09:31;100080.91;;;18.17;100.00
64354;BME280;50681;53.334;-6.536;2023-03-20T17:12:13;100092.78;;;18.09;100.00
64354;BME280;50681;53.334;-6.536;2023-03-20T17:14:40;100069.19;;;18.16;100.00
64354;BME280;50681;53.334;-6.536;2023-03-20T17:17:13;100097.28;;;18.01;100.00
64354;BME280;50681;53.334;-6.536;2023-03-20T17:19:39;100086.56;;;17.80;100.00
64354;BME280;50681;53.334;-6.536;2023-03-20T17:22:17;100089.66;;;17.78;100.00
64354;BME280;50681;53.334;-6.536;2023-03-20T17:24:43;100083.25;;;17.58;100.00
64354;BME280;50681;53.334;-6.536;2023-03-20T17:27:10;100074.56;;;17.68;100.00
64354;BME280;50681;53.334;-6.536;2023-03-20T17:29:37;100065.97;;;17.82;100.00
64354;BME280;50681;53.334;-6.536;2023-03-20T17:32:14;100065.22;;;18.14;100.00
64354;BME280;50681;53.334;-6.536;2023-03-20T17:34:41;100063.47;;;18.21;100.00
64354;BME280;50681;53.334;-6.536;2023-03-20T17:37:14;100061.09;;;18.56;100.00
64354;BME280;50681;53.334;-6.536;2023-03-20T17:39:40;100055.97;;;18.02;100.00
64354;BME280;50681;53.334;-6.536;2023-03-20T17:42:20;100035.03;;;17.78;100.00
64354;BME280;50681;53.334;-6.536;2023-03-20T17:44:48;100040.09;;;17.47;100.00
64354;BME280;50681;53.334;-6.536;2023-03-20T17:47:16;100029.97;;;17.48;100.00
64354;BME280;50681;53.334;-6.536;2023-03-20T17:49:43;100055.63;;;17.59;100.00
64354;BME280;50681;53.334;-6.536;2023-03-20T17:52:25;100041.03;;;17.68;100.00
64354;BME280;50681;53.334;-6.536;2023-03-20T17:54:51;100053.19;;;17.42;100.00
64354;BME280;50681;53.334;-6.536;2023-03-20T17:59:48;100045.91;;;17.46;100.00
64354;BME280;50681;53.334;-6.536;2023-03-20T18:02:17;100019.69;;;17.29;100.00
64354;BME280;50681;53.334;-6.536;2023-03-20T18:04:46;100041.91;;;17.43;100.00
64354;BME280;50681;53.334;-6.536;2023-03-20T18:07:13;100028.88;;;17.37;100.00
64354;BME280;50681;53.334;-6.536;2023-03-20T18:09:40;100024.25;;;17.25;100.00
64354;BME280;50681;53.334;-6.536;2023-03-20T18:12:09;100007.69;;;17.17;100.00
64354;BME280;50681;53.334;-6.536;2023-03-20T18:14:34;100009.91;;;17.12;100.00
64354;BME280;50681;53.334;-6.536;2023-03-20T18:17:00;100005.00;;;17.05;100.00